Wednesday, January 17, 2018, 2:55 PM GMT
Back to Local

CYQI, Yarmouth, N. S.

Location: , , Canada Lat: 43.833
Local Time: 2:55 PM GMT (14:55 GMT) Lon: -66.083
Time Zone: GMT Elev: 141 ft

Show me the last for .
Show Decoded

2018-01-17 14:00 METAR CYQI 171400Z 13010KT 2SM -SN VV005 M01/M02 A3038 RMK SN8 SLP290 =
2018-01-17 13:00 METAR CYQI 171300Z 13007KT 3SM -SN VV004 M01/M02 A3041 RMK SN8 SLP300 =
2018-01-17 12:00 METAR CYQI 171200Z 12007KT 4SM -SN OVC004 M02/M03 A3041 RMK ST8 /S02/ SLP300 =
2018-01-17 11:47 METAR CYQI 171147Z 12006KT 3SM -SN OVC004 M02/M03 A3040 RMK ST8 SLP299 =
2018-01-17 11:00 METAR CYQI 171100Z 11006KT 2 1/2SM -SN BKN005 OVC012 M03/M03 A3042 RMK SF5SC3
                 /S01/ SLP305 =
2018-01-17 10:54 METAR CYQI 171054Z 11006KT 3SM -SN SCT005 OVC012 M03/M03 A3043 RMK SF4SC4 SLP307
                 =
2018-01-17 10:40 METAR CYQI 171040Z 11006KT 3SM -SN FEW005 OVC015 M03/M04 A3043 RMK SF2SC6 SLP309
                 =
2018-01-17 10:07 METAR CYQI 171007Z 11005KT 1 1/2SM -SN FEW005 VV012 M03/M04 A3044 RMK SF2SN6
                 SLP310 =
2018-01-17 10:00 METAR CYQI 171000Z 11005KT 2SM -SN BKN005 VV020 M03/M04 A3043 RMK SF5SN3 SLP309
                 =
2018-01-17 09:48 METAR CYQI 170948Z 11007KT 2SM -SN FEW005 VV020 M03/M05 A3043 RMK SF2SN6 SLP307
                 =
2018-01-17 09:44 METAR CYQI 170944Z 11006KT 2SM -SN VV019 M04/M05 A3043 RMK SN8 SLP307 =
2018-01-17 09:00 METAR CYQI 170900Z 11007KT 3SM -SN VV024 M04/M05 A3043 RMK SN8 SLP307 =
2018-01-17 08:32 METAR CYQI 170832Z 12005KT 10SM -SN OVC022 M03/M06 A3044 RMK NS8 SLP310 =
2018-01-17 08:00 METAR CYQI 170800Z 12006KT 15SM OVC020 M03/M06 A3043 RMK SC8 SLP308 =
2018-01-17 07:00 METAR CYQI 170700Z 10007KT 15SM OVC019 M04/M06 A3043 RMK SC8 SLP308 =
2018-01-17 06:00 METAR CYQI 170600Z 10005KT 15SM OVC018 M04/M06 A3043 RMK SC8 SLP309 =
2018-01-17 05:00 METAR CYQI 170500Z 10005KT 15SM OVC019 M04/M06 A3044 RMK SC8 SLP313 =
2018-01-17 04:00 METAR CYQI 170400Z 09003KT 15SM OVC020 M03/M05 A3046 RMK SC8 SLP317 =
2018-01-17 03:00 METAR CYQI 170300Z 00000KT 15SM OVC020 M03/M05 A3047 RMK SC8 SLP323 =
2018-01-17 02:00 METAR CYQI 170200Z 09005KT 15SM OVC021 M03/M05 A3046 RMK SC8 SLP320 =
2018-01-17 01:00 METAR CYQI 170100Z 31004KT 15SM OVC020 M01/M05 A3047 RMK SC8 SLP323 =
2018-01-17 00:00 METAR CYQI 170000Z 32006KT 15SM BKN022 M02/M06 A3048 RMK SC7 SLP325 =
2018-01-16 23:00 METAR CYQI 162300Z 30006KT 15SM BKN020 M03/M06 A3048 RMK SC7 SLP325 =
2018-01-16 22:00 METAR CYQI 162200Z 31007KT 15SM OVC018 M02/M06 A3046 RMK SC8 SLP320 =
2018-01-16 21:00 METAR CYQI 162100Z 32008KT 15SM OVC020 M02/M06 A3046 RMK SC8 SLP320 =
2018-01-16 20:00 METAR CYQI 162000Z 30011G16KT 15SM OVC020 M02/M06 A3046 RMK SC8 SLP320 =
2018-01-16 19:00 METAR CYQI 161900Z 31013KT 15SM OVC021 M02/M06 A3045 RMK SC8 SLP315 =
2018-01-16 18:00 METAR CYQI 161800Z 31011KT 15SM OVC020 M02/M06 A3042 RMK SC8 SLP307 =
2018-01-16 17:00 METAR CYQI 161700Z 31010KT 15SM OVC021 M02/M06 A3042 RMK SC8 SLP307 =
2018-01-16 16:00 METAR CYQI 161600Z 33008KT 15SM OVC024 M02/M06 A3045 RMK SC8 SLP315 =
2018-01-16 15:10 METAR CYQI 161510Z 33012G19KT 12SM OVC013 M02/M04 A3044 RMK SC8 SLP314 =
2018-01-16 15:00 METAR CYQI 161500Z 33015KT 1SM -SHSN VV005 M03/M04 A3044 RMK SN8 CVCTV CLD EMBD
                 SLP314 =

Support USWX by starting your Amazon purchase here.